Terminal Aerodrome Forecast
Issued by NWS Amarillo, TX

Current Version | Previous Version | Text Only | Print | Product List | Glossary Off
Versions: 1 2 3 4 5 6 7 8 9 10 11 12 13 14 15 16

730
FTUS44 KAMA 300644 AAA
TAFDHT
TAF AMD
KDHT 300644Z 3007/3106 20010KT P6SM FEW060
     FM301300 19011KT P6SM SCT015 BKN110
      TEMPO 3013/3017 OVC015
     FM301900 17017KT P6SM BKN040 OVC120
     FM310100 16016KT P6SM SCT120 BKN200=

USA.gov is the U.S. government's official web portal to all federal, state and local government web resources and services.